Ardeche — ONIV — position and weather

sailwx.info

Track history (hours):
 
Tides and Currents Weather Stations Pressure Air Temp Water Temp Dewpoint Dewpoint Depression Visibility Wind Speed Wind Dir Waves Ship Positions

Ardeche

Last reported at 2017-Sep-18 06:06 UTC. Time now 2017-Sep-26 21:47 UTC.
Position N 21°47' W 113°57'.
Warning: this ship's position is 8 days out of date.

Length 333 m; draft 11 m.

Type: Tanker. MMSI: 205710000.

Date/timePositionNaut miles runAvg speedWind from/ knotsBaromVisibWave heightAir tempDewpointWater temp
2017-Sep-18 06:06N 21°47' W 113°57'1 8.8
2017-Sep-18 06:01N 21°48' W 113°57'13 8.8
2017-Sep-18 04:28N 22°01' W 114°01'31 9.1
2017-Sep-18 01:07N 22°30' W 114°11'1 8.9
2017-Sep-18 01:00N 22°31' W 114°11'56 9.2
2017-Sep-17 18:57N 23°25' W 114°28'7 9.2
2017-Sep-17 18:11N 23°31' W 114°31'65 9.0
2017-Sep-17 10:57N 24°34' W 114°51'112 5.2
2017-Sep-16 13:26N 26°21' W 115°27'50 8.2
2017-Sep-16 07:19N 27°09' W 115°43'73 8.8
2017-Sep-15 23:05N 28°18' W 116°07'13 8.9
2017-Sep-15 21:36N 28°31' W 116°12'2 9.3
2017-Sep-15 21:25N 28°32' W 116°12'4 9.1
2017-Sep-15 21:00N 28°36' W 116°13'16110.5
2017-Sep-15 05:40N 31°08' W 117°13'3 9.6
2017-Sep-15 05:23N 31°11' W 117°14'20 9.9
2017-Sep-15 03:24N 31°30' W 117°21'32 9.7
2017-Sep-15 00:09N 31°60' W 117°33'3 9.4
2017-Sep-14 23:47N 32°03' W 117°34'3 9.2
2017-Sep-14 23:31N 32°05' W 117°35'5 9.1
2017-Sep-14 23:00N 32°10' W 117°37'4 8.9
2017-Sep-14 22:31N 32°14' W 117°39'4 8.7
2017-Sep-14 22:00N 32°18' W 117°40'4 8.8
2017-Sep-14 21:31N 32°22' W 117°42'4 8.8
2017-Sep-14 21:01N 32°26' W 117°44'4 8.8
2017-Sep-14 20:31N 32°30' W 117°45'4 8.8
2017-Sep-14 20:00N 32°35' W 117°47'4 8.7
2017-Sep-14 19:31N 32°39' W 117°49'4 8.9
2017-Sep-14 19:01N 32°43' W 117°50'5 9.1
2017-Sep-14 18:30N 32°47' W 117°52'4 8.8
2017-Sep-14 18:00N 32°51' W 117°54'4 8.5
2017-Sep-14 17:30N 32°55' W 117°56'4 8.6
2017-Sep-14 17:00N 32°59' W 117°58'4 8.7
2017-Sep-14 16:31N 33°03' W 117°60'4 8.7
2017-Sep-14 16:01N 33°08' W 118°01'4 8.7
2017-Sep-14 15:30N 33°12' W 118°03'4 8.6
2017-Sep-14 15:01N 33°16' W 118°05'4 8.4
2017-Sep-14 14:31N 33°20' W 118°07'5 8.4
2017-Sep-14 13:56N 33°24' W 118°09'4 8.6
2017-Sep-14 13:31N 33°28' W 118°10'4 8.7
2017-Sep-14 13:00N 33°32' W 118°12'4 8.2
2017-Sep-14 12:30N 33°36' W 118°13'4 8.5
2017-Sep-14 12:01N 33°40' W 118°12'4 7.1
2017-Sep-14 11:29N 33°43' W 118°11'1 2.4
2017-Sep-14 11:00N 33°44' W 118°10'0 0.0
2017-Sep-14 10:30N 33°44' W 118°10'0 0.0
2017-Sep-14 10:00N 33°44' W 118°10'0 0.0
2017-Sep-14 09:30N 33°44' W 118°10'0 0.0
2017-Sep-14 09:00N 33°44' W 118°10'0 0.0
2017-Sep-14 08:30N 33°44' W 118°10'0 0.0
2017-Sep-14 08:00N 33°44' W 118°10'0 0.0
2017-Sep-14 07:30N 33°44' W 118°10'0 0.0
2017-Sep-14 06:57N 33°44' W 118°10'0 0.0
2017-Sep-14 06:30N 33°44' W 118°10'0 0.1
2017-Sep-14 06:00N 33°44' W 118°10'0 0.0
2017-Sep-14 05:30N 33°44' W 118°10'0 0.0
2017-Sep-14 05:00N 33°44' W 118°10'0 0.0
2017-Sep-14 04:30N 33°44' W 118°10'0 0.0
2017-Sep-14 04:00N 33°44' W 118°10'0 0.0
2017-Sep-14 03:24N 33°44' W 118°10'0 0.0
2017-Sep-14 03:00N 33°44' W 118°10'0 0.0
2017-Sep-14 02:27N 33°44' W 118°10'0 0.0
2017-Sep-14 02:00N 33°44' W 118°10'0 0.0
2017-Sep-14 01:30N 33°44' W 118°10'0 0.0
2017-Sep-14 01:00N 33°44' W 118°10'0 0.0
2017-Sep-14 00:30N 33°44' W 118°10'0 0.0
2017-Sep-14 00:00N 33°44' W 118°10'0 0.0
2017-Sep-13 23:30N 33°44' W 118°10'0 0.1
2017-Sep-13 23:01N 33°44' W 118°10'0 0.1
2017-Sep-13 22:30N 33°44' W 118°10'0 0.1
2017-Sep-13 22:00N 33°44' W 118°10'0 0.0
2017-Sep-13 21:30N 33°44' W 118°10'0 0.0
2017-Sep-13 21:00N 33°44' W 118°10'0 0.2
2017-Sep-13 20:28N 33°44' W 118°10'0 0.5
2017-Sep-13 20:00N 33°44' W 118°10'0 0.3
2017-Sep-13 19:30N 33°44' W 118°10'2 4.4
2017-Sep-13 19:01N 33°42' W 118°11'3 5.7
2017-Sep-13 18:31N 33°39' W 118°10'2 4.6
2017-Sep-13 18:01N 33°36' W 118°10'2 4.6
2017-Sep-13 17:31N 33°34' W 118°09'2 4.7
2017-Sep-13 17:01N 33°32' W 118°08'2 4.9
2017-Sep-13 16:31N 33°30' W 118°07'3 5.0
2017-Sep-13 16:00N 33°27' W 118°06'3 5.0
2017-Sep-13 15:31N 33°25' W 118°05'3 5.2
2017-Sep-13 15:01N 33°23' W 118°04'3 6.9
2017-Sep-13 14:30N 33°19' W 118°03'4 8.6
2017-Sep-13 14:00N 33°16' W 118°00'4 8.6
2017-Sep-13 13:30N 33°12' W 117°57'2 4.5
2017-Sep-13 13:00N 33°10' W 117°56'0 0.9
2017-Sep-13 12:30N 33°09' W 117°57'1 1.0
2017-Sep-13 12:00N 33°09' W 117°57'1 1.9
2017-Sep-13 11:30N 33°08' W 117°57'2 4.7
2017-Sep-13 11:00N 33°06' W 117°55'1 2.4
2017-Sep-13 10:30N 33°06' W 117°54'1 1.6
2017-Sep-13 10:01N 33°05' W 117°53'1 1.2
2017-Sep-13 09:31N 33°05' W 117°53'1 1.2
2017-Sep-13 09:00N 33°04' W 117°52'1 1.2
2017-Sep-13 08:31N 33°03' W 117°52'0 0.9
2017-Sep-13 08:01N 33°03' W 117°52'0 0.7
2017-Sep-13 07:30N 33°03' W 117°52'1 1.2
2017-Sep-13 07:01N 33°02' W 117°51'1 1.3
2017-Sep-13 06:30N 33°02' W 117°51'1 1.2
2017-Sep-13 06:00N 33°01' W 117°50'1 1.2
2017-Sep-13 05:31N 33°01' W 117°50'1 1.1
2017-Sep-13 05:01N 33°01' W 117°49'1 1.1
2017-Sep-13 04:30N 33°00' W 117°49'0 1.0
2017-Sep-13 04:01N 32°60' W 117°48'0 0.9
2017-Sep-13 03:30N 32°59' W 117°48'1 1.0
2017-Sep-13 03:01N 32°59' W 117°48'0 0.9
2017-Sep-13 02:31N 32°59' W 117°47'1 1.0
2017-Sep-13 02:01N 32°58' W 117°47'2 3.0
2017-Sep-13 01:31N 32°57' W 117°45'1 3.0
2017-Sep-13 01:01N 32°56' W 117°44'0 0.7
2017-Sep-13 00:31N 32°56' W 117°44'0 0.3
2017-Sep-13 00:00N 32°56' W 117°44'0 0.5
2017-Sep-12 23:31N 32°56' W 117°44'1 1.4
2017-Sep-12 23:00N 32°55' W 117°44'1 1.2
2017-Sep-12 22:31N 32°54' W 117°43'0 0.7
2017-Sep-12 22:00N 32°54' W 117°43'1 1.5
2017-Sep-12 21:31N 32°54' W 117°44'1 1.6
2017-Sep-12 21:00N 32°54' W 117°45'1 1.3
2017-Sep-12 20:31N 32°55' W 117°46'0 1.0
2017-Sep-12 20:00N 32°55' W 117°46'0 1.0
2017-Sep-12 19:31N 32°55' W 117°46'0 1.0
2017-Sep-12 19:01N 32°56' W 117°47'0 1.0
2017-Sep-12 18:30N 32°56' W 117°47'0 0.9
2017-Sep-12 18:01N 32°56' W 117°48'0 0.8
2017-Sep-12 17:31N 32°56' W 117°48'0 0.8
2017-Sep-12 17:00N 32°57' W 117°48'0 0.8
2017-Sep-12 16:30N 32°57' W 117°49'0 0.9
2017-Sep-12 16:01N 32°57' W 117°49'0 0.8
2017-Sep-12 15:31N 32°58' W 117°49'0 1.0
2017-Sep-12 15:01N 32°58' W 117°50'0 0.9
2017-Sep-12 14:31N 32°58' W 117°50'0 0.7
2017-Sep-12 14:00N 32°59' W 117°50'1 1.5
2017-Sep-12 13:30N 32°59' W 117°51'2 3.4
2017-Sep-12 13:01N 33°01' W 117°52'2 4.4
2017-Sep-12 12:30N 33°03' W 117°53'2 4.5
2017-Sep-12 12:01N 33°05' W 117°55'2 4.5
2017-Sep-12 11:31N 33°06' W 117°56'2 4.1
2017-Sep-12 11:00N 33°08' W 117°57'1 1.5
2017-Sep-12 10:31N 33°09' W 117°58'0 0.7
2017-Sep-12 10:01N 33°09' W 117°57'1 1.1
2017-Sep-12 09:31N 33°10' W 117°57'1 1.2
2017-Sep-12 09:00N 33°09' W 117°58'0 0.7
2017-Sep-12 08:30N 33°09' W 117°57'1 2.6
2017-Sep-12 08:00N 33°08' W 117°57'1 2.3
2017-Sep-12 07:30N 33°07' W 117°56'0 0.4
2017-Sep-12 07:00N 33°07' W 117°56'0 0.4
2017-Sep-12 06:31N 33°07' W 117°56'0 0.4
2017-Sep-12 06:01N 33°08' W 117°55'0 0.4
2017-Sep-12 05:31N 33°08' W 117°55'0 0.4
2017-Sep-12 05:01N 33°08' W 117°55'0 0.4
2017-Sep-12 04:31N 33°08' W 117°55'0 0.3
2017-Sep-12 04:01N 33°08' W 117°55'0 0.3
2017-Sep-12 03:31N 33°08' W 117°55'0 0.2
2017-Sep-12 03:00N 33°08' W 117°55'0 0.2
2017-Sep-12 02:30N 33°09' W 117°55'0 0.4
2017-Sep-12 02:01N 33°09' W 117°55'0 0.5
2017-Sep-12 01:31N 33°09' W 117°55'1 1.7
2017-Sep-12 01:01N 33°09' W 117°54'2 4.3
2017-Sep-12 00:31N 33°09' W 117°51'1 1.4
2017-Sep-12 00:00N 33°09' W 117°51'0 0.6
2017-Sep-11 23:31N 33°09' W 117°51'0 0.5
2017-Sep-11 23:01N 33°09' W 117°51'0 0.6
2017-Sep-11 22:31N 33°09' W 117°52'0 0.6
2017-Sep-11 22:00N 33°09' W 117°52'0 0.6
2017-Sep-11 21:31N 33°08' W 117°52'0 0.7
2017-Sep-11 21:00N 33°08' W 117°53'0 0.7
2017-Sep-11 20:31N 33°08' W 117°53'0 0.6
2017-Sep-11 20:00N 33°08' W 117°53'0 0.5
2017-Sep-11 19:31N 33°08' W 117°53'0 0.4
2017-Sep-11 19:01N 33°08' W 117°54'0 0.4
2017-Sep-11 18:31N 33°07' W 117°54'0 0.3
2017-Sep-11 18:01N 33°07' W 117°54'0 0.3
2017-Sep-11 17:30N 33°07' W 117°54'0 0.3
2017-Sep-11 17:01N 33°07' W 117°54'0 0.4
2017-Sep-11 16:30N 33°07' W 117°54'0 0.3
2017-Sep-11 16:01N 33°07' W 117°54'0 0.4
2017-Sep-11 15:31N 33°06' W 117°54'0 0.4
2017-Sep-11 15:01N 33°06' W 117°54'0 0.5
2017-Sep-11 14:31N 33°06' W 117°54'0 0.6
2017-Sep-11 14:01N 33°06' W 117°54'0 0.7
2017-Sep-11 13:31N 33°05' W 117°54'0 0.6
2017-Sep-11 13:01N 33°05' W 117°54'0 0.4
2017-Sep-11 12:31N 33°05' W 117°54'0 0.3
2017-Sep-11 12:01N 33°05' W 117°54'0 0.2
2017-Sep-11 11:31N 33°05' W 117°54'0 0.2
2017-Sep-11 11:00N 33°05' W 117°53'0 0.3
2017-Sep-11 10:31N 33°05' W 117°53'0 0.2
2017-Sep-11 10:01N 33°04' W 117°53'0 0.2
2017-Sep-11 09:30N 33°04' W 117°53'0 0.3
2017-Sep-11 09:01N 33°04' W 117°53'0 0.3
2017-Sep-11 08:31N 33°04' W 117°53'0 0.3
2017-Sep-11 08:01N 33°04' W 117°53'0 0.4
2017-Sep-11 07:31N 33°04' W 117°52'0 0.2
2017-Sep-11 07:00N 33°04' W 117°52'0 0.4
2017-Sep-11 06:31N 33°05' W 117°52'0 0.5
2017-Sep-11 06:00N 33°05' W 117°52'0 0.5
2017-Sep-11 05:31N 33°05' W 117°52'0 0.5
2017-Sep-11 05:01N 33°05' W 117°51'0 0.7
2017-Sep-11 04:30N 33°05' W 117°51'0 0.8
2017-Sep-11 04:01N 33°06' W 117°51'1 1.0
2017-Sep-11 03:30N 33°06' W 117°50'1 2.4
2017-Sep-11 03:01N 33°07' W 117°49'1 2.2
2017-Sep-11 02:31N 33°07' W 117°48'0 0.5
2017-Sep-11 02:01N 33°07' W 117°48'0 0.5
2017-Sep-11 01:30N 33°07' W 117°49'0 0.6
2017-Sep-11 01:00N 33°07' W 117°49'0 0.6
2017-Sep-11 00:31N 33°07' W 117°49'0 0.7
2017-Sep-11 00:00N 33°07' W 117°50'0 0.6
2017-Sep-10 23:30N 33°07' W 117°50'0 0.7
2017-Sep-10 23:00N 33°07' W 117°50'0 0.5
2017-Sep-10 22:30N 33°07' W 117°51'0 0.6
2017-Sep-10 22:01N 33°06' W 117°51'0 0.4
2017-Sep-10 21:30N 33°06' W 117°51'0 0.6
2017-Sep-10 21:00N 33°06' W 117°51'0 0.7
2017-Sep-10 20:30N 33°06' W 117°52'0 0.7
2017-Sep-10 20:00N 33°06' W 117°52'0 0.6
2017-Sep-10 19:31N 33°05' W 117°52'0 0.5
2017-Sep-10 19:01N 33°05' W 117°53'0 0.4
2017-Sep-10 18:31N 33°05' W 117°53'0 0.3
2017-Sep-10 18:01N 33°05' W 117°53'0 0.3
2017-Sep-10 17:30N 33°05' W 117°53'0 0.2
2017-Sep-10 17:01N 33°05' W 117°53'0 0.1
2017-Sep-10 16:31N 33°05' W 117°53'0 0.1
2017-Sep-10 16:00N 33°05' W 117°53'0 0.1
2017-Sep-10 15:29N 33°04' W 117°53'0 0.2
2017-Sep-10 15:01N 33°04' W 117°53'0 0.2
2017-Sep-10 14:01N 33°04' W 117°53'0 0.2
2017-Sep-10 13:30N 33°04' W 117°53'0 0.2
2017-Sep-10 13:00N 33°04' W 117°53'0 0.2
2017-Sep-10 12:31N 33°04' W 117°53'0 0.0
2017-Sep-10 12:00N 33°04' W 117°53'0 0.1
2017-Sep-10 11:31N 33°04' W 117°53'0 0.2
2017-Sep-10 11:00N 33°04' W 117°53'0 0.1
2017-Sep-10 10:31N 33°04' W 117°53'0 0.2
2017-Sep-10 10:01N 33°04' W 117°52'0 0.3
2017-Sep-10 09:30N 33°04' W 117°52'0 0.3
2017-Sep-10 09:01N 33°04' W 117°52'0 0.2
2017-Sep-10 08:31N 33°04' W 117°52'0 0.1
2017-Sep-10 08:01N 33°04' W 117°52'0 0.1
2017-Sep-10 07:31N 33°04' W 117°52'0 0.3
2017-Sep-10 07:01N 33°04' W 117°52'0 0.3
2017-Sep-10 06:31N 33°05' W 117°52'0 0.4
2017-Sep-10 06:01N 33°05' W 117°52'0 0.4
2017-Sep-10 05:30N 33°05' W 117°52'0 0.5
2017-Sep-10 05:01N 33°05' W 117°52'0 0.5
2017-Sep-10 04:31N 33°05' W 117°52'0 0.4
2017-Sep-10 04:00N 33°06' W 117°52'0 0.3
2017-Sep-10 03:31N 33°06' W 117°52'0 0.2
2017-Sep-10 03:01N 33°06' W 117°52'0 0.4
2017-Sep-10 02:30N 33°06' W 117°52'2 3.3
2017-Sep-10 02:01N 33°05' W 117°50'1 1.8
2017-Sep-10 01:31N 33°04' W 117°49'0 0.8
2017-Sep-10 01:00N 33°04' W 117°49'0 0.8
2017-Sep-10 00:31N 33°04' W 117°49'0 1.0
2017-Sep-10 00:01N 33°03' W 117°48'0 0.9
2017-Sep-09 23:30N 33°03' W 117°48'1 1.0
2017-Sep-09 23:01N 33°03' W 117°48'1 1.1
2017-Sep-09 22:31N 33°02' W 117°47'0 0.9
2017-Sep-09 22:00N 33°02' W 117°47'0 0.9
2017-Sep-09 21:30N 33°01' W 117°47'1 1.0
2017-Sep-09 21:01N 33°01' W 117°47'0 0.9
2017-Sep-09 20:31N 33°00' W 117°47'0 0.8
2017-Sep-09 20:00N 32°60' W 117°47'0 0.9
2017-Sep-09 19:30N 32°59' W 117°47'0 0.8
2017-Sep-09 19:01N 32°59' W 117°47'0 0.7
2017-Sep-09 18:31N 32°59' W 117°47'0 0.7
2017-Sep-09 18:00N 32°58' W 117°47'0 0.7
2017-Sep-09 17:31N 32°58' W 117°48'0 0.7
2017-Sep-09 17:00N 32°58' W 117°48'0 0.6
2017-Sep-09 16:31N 32°57' W 117°48'0 0.9
2017-Sep-09 16:00N 32°57' W 117°47'1 1.3
2017-Sep-09 15:30N 32°57' W 117°48'1 1.7
2017-Sep-09 15:00N 32°57' W 117°49'0 1.0
2017-Sep-09 14:31N 32°57' W 117°49'0 0.8
2017-Sep-09 14:01N 32°57' W 117°50'0 0.8
2017-Sep-09 13:30N 32°58' W 117°50'0 0.5
2017-Sep-09 13:01N 32°58' W 117°50'0 0.6
2017-Sep-09 12:30N 32°58' W 117°51'0 0.7
2017-Sep-09 12:01N 32°58' W 117°51'0 0.8
2017-Sep-09 11:30N 32°59' W 117°51'0 0.9
2017-Sep-09 11:00N 32°59' W 117°51'0 0.9
2017-Sep-09 10:30N 32°59' W 117°52'1 1.9
2017-Sep-09 10:01N 33°00' W 117°52'2 3.2
2017-Sep-09 09:31N 33°02' W 117°53'2 4.3
2017-Sep-09 09:00N 33°04' W 117°54'2 4.6
2017-Sep-09 08:30N 33°06' W 117°55'2 4.6
2017-Sep-09 08:01N 33°08' W 117°56'2 3.7
2017-Sep-09 07:27N 33°10' W 117°57'1 1.2
2017-Sep-09 07:01N 33°10' W 117°57'0 1.0
2017-Sep-09 06:30N 33°11' W 117°57'0 0.8
2017-Sep-09 06:00N 33°11' W 117°57'0 0.2
2017-Sep-09 05:31N 33°11' W 117°57'0 0.4
2017-Sep-09 05:00N 33°11' W 117°57'0 0.3
2017-Sep-09 04:31N 33°11' W 117°57'0 0.2
2017-Sep-09 04:00N 33°11' W 117°57'0 0.3
2017-Sep-09 03:31N 33°11' W 117°57'0 0.9
2017-Sep-09 03:00N 33°11' W 117°56'1 2.7
2017-Sep-09 02:31N 33°11' W 117°55'1 1.1
2017-Sep-09 02:01N 33°11' W 117°54'0 0.3
2017-Sep-09 01:31N 33°11' W 117°54'0 0.4
2017-Sep-09 01:00N 33°11' W 117°54'0 0.3
2017-Sep-09 00:31N 33°11' W 117°55'0 0.2
2017-Sep-09 00:01N 33°11' W 117°55'0 0.3
2017-Sep-08 23:31N 33°11' W 117°55'0 0.3
2017-Sep-08 23:01N 33°11' W 117°55'0 0.2
2017-Sep-08 22:31N 33°11' W 117°55'0 0.2
2017-Sep-08 22:01N 33°11' W 117°55'1 1.0
2017-Sep-08 21:31N 33°11' W 117°55'3 6.2
2017-Sep-08 21:00N 33°08' W 117°53'3 6.0
2017-Sep-08 20:31N 33°06' W 117°52'1 1.0
2017-Sep-08 20:01N 33°05' W 117°53'0 0.2
2017-Sep-08 19:31N 33°05' W 117°53'0 0.3
2017-Sep-08 19:01N 33°05' W 117°53'0 0.2
2017-Sep-08 18:31N 33°05' W 117°53'0 0.4
2017-Sep-08 18:01N 33°05' W 117°53'0 0.3
2017-Sep-08 17:31N 33°05' W 117°53'0 0.3
2017-Sep-08 17:01N 33°05' W 117°54'0 0.3
2017-Sep-08 16:30N 33°05' W 117°54'0 0.2
2017-Sep-08 16:00N 33°05' W 117°54'0 0.3
2017-Sep-08 15:30N 33°05' W 117°54'0 0.2
2017-Sep-08 15:01N 33°05' W 117°54'0 0.1
2017-Sep-08 14:30N 33°05' W 117°54'0 0.2
2017-Sep-08 14:00N 33°05' W 117°54'0 0.1
2017-Sep-08 13:31N 33°05' W 117°54'0 0.1
2017-Sep-08 13:01N 33°05' W 117°54'0 0.1
2017-Sep-08 12:31N 33°05' W 117°54'0 0.1
2017-Sep-08 12:01N 33°05' W 117°54'0 0.0
2017-Sep-08 11:31N 33°05' W 117°54'0 0.0
2017-Sep-08 11:00N 33°05' W 117°54'0 0.1
2017-Sep-08 10:31N 33°05' W 117°55'0 0.0
2017-Sep-08 10:00N 33°05' W 117°55'0 0.2
2017-Sep-08 09:30N 33°05' W 117°54'0 0.2
2017-Sep-08 09:01N 33°05' W 117°54'0 0.1
2017-Sep-08 08:30N 33°05' W 117°54'0 0.2
2017-Sep-08 08:00N 33°05' W 117°54'0 0.1
2017-Sep-08 07:31N 33°05' W 117°54'0 0.2
2017-Sep-08 07:01N 33°05' W 117°54'0 0.4
2017-Sep-08 06:30N 33°05' W 117°54'  
Track history (hours):
 
Tides and Currents Weather Stations Pressure Air Temp Water Temp Dewpoint Dewpoint Depression Visibility Wind Speed Wind Dir Waves Ship Positions

Ardeche

Last reported at 2017-Sep-18 06:06 UTC. Time now 2017-Sep-26 21:47 UTC.
Position N 21°47' W 113°57'.
Warning: this ship's position is 8 days out of date.

Length 333 m; draft 11 m.

Type: Tanker. MMSI: 205710000.

Date/timePositionNaut miles runAvg speedWind from/ knotsBaromVisibWave heightAir tempDewpointWater temp
2017-Sep-18 06:06N 21°47' W 113°57'1 8.8
2017-Sep-18 06:01N 21°48' W 113°57'13 8.8
2017-Sep-18 04:28N 22°01' W 114°01'31 9.1
2017-Sep-18 01:07N 22°30' W 114°11'1 8.9
2017-Sep-18 01:00N 22°31' W 114°11'56 9.2
2017-Sep-17 18:57N 23°25' W 114°28'7 9.2
2017-Sep-17 18:11N 23°31' W 114°31'65 9.0
2017-Sep-17 10:57N 24°34' W 114°51'112 5.2
2017-Sep-16 13:26N 26°21' W 115°27'50 8.2
2017-Sep-16 07:19N 27°09' W 115°43'73 8.8
2017-Sep-15 23:05N 28°18' W 116°07'13 8.9
2017-Sep-15 21:36N 28°31' W 116°12'2 9.3
2017-Sep-15 21:25N 28°32' W 116°12'4 9.1
2017-Sep-15 21:00N 28°36' W 116°13'16110.5
2017-Sep-15 05:40N 31°08' W 117°13'3 9.6
2017-Sep-15 05:23N 31°11' W 117°14'20 9.9
2017-Sep-15 03:24N 31°30' W 117°21'32 9.7
2017-Sep-15 00:09N 31°60' W 117°33'3 9.4
2017-Sep-14 23:47N 32°03' W 117°34'3 9.2
2017-Sep-14 23:31N 32°05' W 117°35'5 9.1
2017-Sep-14 23:00N 32°10' W 117°37'4 8.9
2017-Sep-14 22:31N 32°14' W 117°39'4 8.7
2017-Sep-14 22:00N 32°18' W 117°40'4 8.8
2017-Sep-14 21:31N 32°22' W 117°42'4 8.8
2017-Sep-14 21:01N 32°26' W 117°44'4 8.8
2017-Sep-14 20:31N 32°30' W 117°45'4 8.8
2017-Sep-14 20:00N 32°35' W 117°47'4 8.7
2017-Sep-14 19:31N 32°39' W 117°49'4 8.9
2017-Sep-14 19:01N 32°43' W 117°50'5 9.1
2017-Sep-14 18:30N 32°47' W 117°52'4 8.8
2017-Sep-14 18:00N 32°51' W 117°54'4 8.5
2017-Sep-14 17:30N 32°55' W 117°56'4 8.6
2017-Sep-14 17:00N 32°59' W 117°58'4 8.7
2017-Sep-14 16:31N 33°03' W 117°60'4 8.7
2017-Sep-14 16:01N 33°08' W 118°01'4 8.7
2017-Sep-14 15:30N 33°12' W 118°03'4 8.6
2017-Sep-14 15:01N 33°16' W 118°05'4 8.4
2017-Sep-14 14:31N 33°20' W 118°07'5 8.4
2017-Sep-14 13:56N 33°24' W 118°09'4 8.6
2017-Sep-14 13:31N 33°28' W 118°10'4 8.7
2017-Sep-14 13:00N 33°32' W 118°12'4 8.2
2017-Sep-14 12:30N 33°36' W 118°13'4 8.5
2017-Sep-14 12:01N 33°40' W 118°12'4 7.1
2017-Sep-14 11:29N 33°43' W 118°11'1 2.4
2017-Sep-14 11:00N 33°44' W 118°10'0 0.0
2017-Sep-14 10:30N 33°44' W 118°10'0 0.0
2017-Sep-14 10:00N 33°44' W 118°10'0 0.0
2017-Sep-14 09:30N 33°44' W 118°10'0 0.0
2017-Sep-14 09:00N 33°44' W 118°10'0 0.0
2017-Sep-14 08:30N 33°44' W 118°10'0 0.0
2017-Sep-14 08:00N 33°44' W 118°10'0 0.0
2017-Sep-14 07:30N 33°44' W 118°10'0 0.0
2017-Sep-14 06:57N 33°44' W 118°10'0 0.0
2017-Sep-14 06:30N 33°44' W 118°10'0 0.1
2017-Sep-14 06:00N 33°44' W 118°10'0 0.0
2017-Sep-14 05:30N 33°44' W 118°10'0 0.0
2017-Sep-14 05:00N 33°44' W 118°10'0 0.0
2017-Sep-14 04:30N 33°44' W 118°10'0 0.0
2017-Sep-14 04:00N 33°44' W 118°10'0 0.0
2017-Sep-14 03:24N 33°44' W 118°10'0 0.0
2017-Sep-14 03:00N 33°44' W 118°10'0 0.0
2017-Sep-14 02:27N 33°44' W 118°10'0 0.0
2017-Sep-14 02:00N 33°44' W 118°10'0 0.0
2017-Sep-14 01:30N 33°44' W 118°10'0 0.0
2017-Sep-14 01:00N 33°44' W 118°10'0 0.0
2017-Sep-14 00:30N 33°44' W 118°10'0 0.0
2017-Sep-14 00:00N 33°44' W 118°10'0 0.0
2017-Sep-13 23:30N 33°44' W 118°10'0 0.1
2017-Sep-13 23:01N 33°44' W 118°10'0 0.1
2017-Sep-13 22:30N 33°44' W 118°10'0 0.1
2017-Sep-13 22:00N 33°44' W 118°10'0 0.0
2017-Sep-13 21:30N 33°44' W 118°10'0 0.0
2017-Sep-13 21:00N 33°44' W 118°10'0 0.2
2017-Sep-13 20:28N 33°44' W 118°10'0 0.5
2017-Sep-13 20:00N 33°44' W 118°10'0 0.3
2017-Sep-13 19:30N 33°44' W 118°10'2 4.4
2017-Sep-13 19:01N 33°42' W 118°11'3 5.7
2017-Sep-13 18:31N 33°39' W 118°10'2 4.6
2017-Sep-13 18:01N 33°36' W 118°10'2 4.6
2017-Sep-13 17:31N 33°34' W 118°09'2 4.7
2017-Sep-13 17:01N 33°32' W 118°08'2 4.9
2017-Sep-13 16:31N 33°30' W 118°07'3 5.0
2017-Sep-13 16:00N 33°27' W 118°06'3 5.0
2017-Sep-13 15:31N 33°25' W 118°05'3 5.2
2017-Sep-13 15:01N 33°23' W 118°04'3 6.9
2017-Sep-13 14:30N 33°19' W 118°03'4 8.6
2017-Sep-13 14:00N 33°16' W 118°00'4 8.6
2017-Sep-13 13:30N 33°12' W 117°57'2 4.5
2017-Sep-13 13:00N 33°10' W 117°56'0 0.9
2017-Sep-13 12:30N 33°09' W 117°57'1 1.0
2017-Sep-13 12:00N 33°09' W 117°57'1 1.9
2017-Sep-13 11:30N 33°08' W 117°57'2 4.7
2017-Sep-13 11:00N 33°06' W 117°55'1 2.4
2017-Sep-13 10:30N 33°06' W 117°54'1 1.6
2017-Sep-13 10:01N 33°05' W 117°53'1 1.2
2017-Sep-13 09:31N 33°05' W 117°53'1 1.2
2017-Sep-13 09:00N 33°04' W 117°52'1 1.2
2017-Sep-13 08:31N 33°03' W 117°52'0 0.9
2017-Sep-13 08:01N 33°03' W 117°52'0 0.7
2017-Sep-13 07:30N 33°03' W 117°52'1 1.2
2017-Sep-13 07:01N 33°02' W 117°51'1 1.3
2017-Sep-13 06:30N 33°02' W 117°51'1 1.2
2017-Sep-13 06:00N 33°01' W 117°50'1 1.2
2017-Sep-13 05:31N 33°01' W 117°50'1 1.1
2017-Sep-13 05:01N 33°01' W 117°49'1 1.1
2017-Sep-13 04:30N 33°00' W 117°49'0 1.0
2017-Sep-13 04:01N 32°60' W 117°48'0 0.9
2017-Sep-13 03:30N 32°59' W 117°48'1 1.0
2017-Sep-13 03:01N 32°59' W 117°48'0 0.9
2017-Sep-13 02:31N 32°59' W 117°47'1 1.0
2017-Sep-13 02:01N 32°58' W 117°47'2 3.0
2017-Sep-13 01:31N 32°57' W 117°45'1 3.0
2017-Sep-13 01:01N 32°56' W 117°44'0 0.7
2017-Sep-13 00:31N 32°56' W 117°44'0 0.3
2017-Sep-13 00:00N 32°56' W 117°44'0 0.5
2017-Sep-12 23:31N 32°56' W 117°44'1 1.4
2017-Sep-12 23:00N 32°55' W 117°44'1 1.2
2017-Sep-12 22:31N 32°54' W 117°43'0 0.7
2017-Sep-12 22:00N 32°54' W 117°43'1 1.5
2017-Sep-12 21:31N 32°54' W 117°44'1 1.6
2017-Sep-12 21:00N 32°54' W 117°45'1 1.3
2017-Sep-12 20:31N 32°55' W 117°46'0 1.0
2017-Sep-12 20:00N 32°55' W 117°46'0 1.0
2017-Sep-12 19:31N 32°55' W 117°46'0 1.0
2017-Sep-12 19:01N 32°56' W 117°47'0 1.0
2017-Sep-12 18:30N 32°56' W 117°47'0 0.9
2017-Sep-12 18:01N 32°56' W 117°48'0 0.8
2017-Sep-12 17:31N 32°56' W 117°48'0 0.8
2017-Sep-12 17:00N 32°57' W 117°48'0 0.8
2017-Sep-12 16:30N 32°57' W 117°49'0 0.9
2017-Sep-12 16:01N 32°57' W 117°49'0 0.8
2017-Sep-12 15:31N 32°58' W 117°49'0 1.0
2017-Sep-12 15:01N 32°58' W 117°50'0 0.9
2017-Sep-12 14:31N 32°58' W 117°50'0 0.7
2017-Sep-12 14:00N 32°59' W 117°50'1 1.5
2017-Sep-12 13:30N 32°59' W 117°51'2 3.4
2017-Sep-12 13:01N 33°01' W 117°52'2 4.4
2017-Sep-12 12:30N 33°03' W 117°53'2 4.5
2017-Sep-12 12:01N 33°05' W 117°55'2 4.5
2017-Sep-12 11:31N 33°06' W 117°56'2 4.1
2017-Sep-12 11:00N 33°08' W 117°57'1 1.5
2017-Sep-12 10:31N 33°09' W 117°58'0 0.7
2017-Sep-12 10:01N 33°09' W 117°57'1 1.1
2017-Sep-12 09:31N 33°10' W 117°57'1 1.2
2017-Sep-12 09:00N 33°09' W 117°58'0 0.7
2017-Sep-12 08:30N 33°09' W 117°57'1 2.6
2017-Sep-12 08:00N 33°08' W 117°57'1 2.3
2017-Sep-12 07:30N 33°07' W 117°56'0 0.4
2017-Sep-12 07:00N 33°07' W 117°56'0 0.4
2017-Sep-12 06:31N 33°07' W 117°56'0 0.4
2017-Sep-12 06:01N 33°08' W 117°55'0 0.4
2017-Sep-12 05:31N 33°08' W 117°55'0 0.4
2017-Sep-12 05:01N 33°08' W 117°55'0 0.4
2017-Sep-12 04:31N 33°08' W 117°55'0 0.3
2017-Sep-12 04:01N 33°08' W 117°55'0 0.3
2017-Sep-12 03:31N 33°08' W 117°55'0 0.2
2017-Sep-12 03:00N 33°08' W 117°55'0 0.2
2017-Sep-12 02:30N 33°09' W 117°55'0 0.4
2017-Sep-12 02:01N 33°09' W 117°55'0 0.5
2017-Sep-12 01:31N 33°09' W 117°55'1 1.7
2017-Sep-12 01:01N 33°09' W 117°54'2 4.3
2017-Sep-12 00:31N 33°09' W 117°51'1 1.4
2017-Sep-12 00:00N 33°09' W 117°51'0 0.6
2017-Sep-11 23:31N 33°09' W 117°51'0 0.5
2017-Sep-11 23:01N 33°09' W 117°51'0 0.6
2017-Sep-11 22:31N 33°09' W 117°52'0 0.6
2017-Sep-11 22:00N 33°09' W 117°52'0 0.6
2017-Sep-11 21:31N 33°08' W 117°52'0 0.7
2017-Sep-11 21:00N 33°08' W 117°53'0 0.7
2017-Sep-11 20:31N 33°08' W 117°53'0 0.6
2017-Sep-11 20:00N 33°08' W 117°53'0 0.5
2017-Sep-11 19:31N 33°08' W 117°53'0 0.4
2017-Sep-11 19:01N 33°08' W 117°54'0 0.4
2017-Sep-11 18:31N 33°07' W 117°54'0 0.3
2017-Sep-11 18:01N 33°07' W 117°54'0 0.3
2017-Sep-11 17:30N 33°07' W 117°54'0 0.3
2017-Sep-11 17:01N 33°07' W 117°54'0 0.4
2017-Sep-11 16:30N 33°07' W 117°54'0 0.3
2017-Sep-11 16:01N 33°07' W 117°54'0 0.4
2017-Sep-11 15:31N 33°06' W 117°54'0 0.4
2017-Sep-11 15:01N 33°06' W 117°54'0 0.5
2017-Sep-11 14:31N 33°06' W 117°54'0 0.6
2017-Sep-11 14:01N 33°06' W 117°54'0 0.7
2017-Sep-11 13:31N 33°05' W 117°54'0 0.6
2017-Sep-11 13:01N 33°05' W 117°54'0 0.4
2017-Sep-11 12:31N 33°05' W 117°54'0 0.3
2017-Sep-11 12:01N 33°05' W 117°54'0 0.2
2017-Sep-11 11:31N 33°05' W 117°54'0 0.2
2017-Sep-11 11:00N 33°05' W 117°53'0 0.3
2017-Sep-11 10:31N 33°05' W 117°53'0 0.2
2017-Sep-11 10:01N 33°04' W 117°53'0 0.2
2017-Sep-11 09:30N 33°04' W 117°53'0 0.3
2017-Sep-11 09:01N 33°04' W 117°53'0 0.3
2017-Sep-11 08:31N 33°04' W 117°53'0 0.3
2017-Sep-11 08:01N 33°04' W 117°53'0 0.4
2017-Sep-11 07:31N 33°04' W 117°52'0 0.2
2017-Sep-11 07:00N 33°04' W 117°52'0 0.4
2017-Sep-11 06:31N 33°05' W 117°52'0 0.5
2017-Sep-11 06:00N 33°05' W 117°52'0 0.5
2017-Sep-11 05:31N 33°05' W 117°52'0 0.5
2017-Sep-11 05:01N 33°05' W 117°51'0 0.7
2017-Sep-11 04:30N 33°05' W 117°51'0 0.8
2017-Sep-11 04:01N 33°06' W 117°51'1 1.0
2017-Sep-11 03:30N 33°06' W 117°50'1 2.4
2017-Sep-11 03:01N 33°07' W 117°49'1 2.2
2017-Sep-11 02:31N 33°07' W 117°48'0 0.5
2017-Sep-11 02:01N 33°07' W 117°48'0 0.5
2017-Sep-11 01:30N 33°07' W 117°49'0 0.6
2017-Sep-11 01:00N 33°07' W 117°49'0 0.6
2017-Sep-11 00:31N 33°07' W 117°49'0 0.7
2017-Sep-11 00:00N 33°07' W 117°50'0 0.6
2017-Sep-10 23:30N 33°07' W 117°50'0 0.7
2017-Sep-10 23:00N 33°07' W 117°50'0 0.5
2017-Sep-10 22:30N 33°07' W 117°51'0 0.6
2017-Sep-10 22:01N 33°06' W 117°51'0 0.4
2017-Sep-10 21:30N 33°06' W 117°51'0 0.6
2017-Sep-10 21:00N 33°06' W 117°51'0 0.7
2017-Sep-10 20:30N 33°06' W 117°52'0 0.7
2017-Sep-10 20:00N 33°06' W 117°52'0 0.6
2017-Sep-10 19:31N 33°05' W 117°52'0 0.5
2017-Sep-10 19:01N 33°05' W 117°53'0 0.4
2017-Sep-10 18:31N 33°05' W 117°53'0 0.3
2017-Sep-10 18:01N 33°05' W 117°53'0 0.3
2017-Sep-10 17:30N 33°05' W 117°53'0 0.2
2017-Sep-10 17:01N 33°05' W 117°53'0 0.1
2017-Sep-10 16:31N 33°05' W 117°53'0 0.1
2017-Sep-10 16:00N 33°05' W 117°53'0 0.1
2017-Sep-10 15:29N 33°04' W 117°53'0 0.2
2017-Sep-10 15:01N 33°04' W 117°53'0 0.2
2017-Sep-10 14:01N 33°04' W 117°53'0 0.2
2017-Sep-10 13:30N 33°04' W 117°53'0 0.2
2017-Sep-10 13:00N 33°04' W 117°53'0 0.2
2017-Sep-10 12:31N 33°04' W 117°53'0 0.0
2017-Sep-10 12:00N 33°04' W 117°53'0 0.1
2017-Sep-10 11:31N 33°04' W 117°53'0 0.2
2017-Sep-10 11:00N 33°04' W 117°53'0 0.1
2017-Sep-10 10:31N 33°04' W 117°53'0 0.2
2017-Sep-10 10:01N 33°04' W 117°52'0 0.3
2017-Sep-10 09:30N 33°04' W 117°52'0 0.3
2017-Sep-10 09:01N 33°04' W 117°52'0 0.2
2017-Sep-10 08:31N 33°04' W 117°52'0 0.1
2017-Sep-10 08:01N 33°04' W 117°52'0 0.1
2017-Sep-10 07:31N 33°04' W 117°52'0 0.3
2017-Sep-10 07:01N 33°04' W 117°52'0 0.3
2017-Sep-10 06:31N 33°05' W 117°52'0 0.4
2017-Sep-10 06:01N 33°05' W 117°52'0 0.4
2017-Sep-10 05:30N 33°05' W 117°52'0 0.5
2017-Sep-10 05:01N 33°05' W 117°52'0 0.5
2017-Sep-10 04:31N 33°05' W 117°52'0 0.4
2017-Sep-10 04:00N 33°06' W 117°52'0 0.3
2017-Sep-10 03:31N 33°06' W 117°52'0 0.2
2017-Sep-10 03:01N 33°06' W 117°52'0 0.4
2017-Sep-10 02:30N 33°06' W 117°52'2 3.3
2017-Sep-10 02:01N 33°05' W 117°50'1 1.8
2017-Sep-10 01:31N 33°04' W 117°49'0 0.8
2017-Sep-10 01:00N 33°04' W 117°49'0 0.8
2017-Sep-10 00:31N 33°04' W 117°49'0 1.0
2017-Sep-10 00:01N 33°03' W 117°48'0 0.9
2017-Sep-09 23:30N 33°03' W 117°48'1 1.0
2017-Sep-09 23:01N 33°03' W 117°48'1 1.1
2017-Sep-09 22:31N 33°02' W 117°47'0 0.9
2017-Sep-09 22:00N 33°02' W 117°47'0 0.9
2017-Sep-09 21:30N 33°01' W 117°47'1 1.0
2017-Sep-09 21:01N 33°01' W 117°47'0 0.9
2017-Sep-09 20:31N 33°00' W 117°47'0 0.8
2017-Sep-09 20:00N 32°60' W 117°47'0 0.9
2017-Sep-09 19:30N 32°59' W 117°47'0 0.8
2017-Sep-09 19:01N 32°59' W 117°47'0 0.7
2017-Sep-09 18:31N 32°59' W 117°47'0 0.7
2017-Sep-09 18:00N 32°58' W 117°47'0 0.7
2017-Sep-09 17:31N 32°58' W 117°48'0 0.7
2017-Sep-09 17:00N 32°58' W 117°48'0 0.6
2017-Sep-09 16:31N 32°57' W 117°48'0 0.9
2017-Sep-09 16:00N 32°57' W 117°47'1 1.3
2017-Sep-09 15:30N 32°57' W 117°48'1 1.7
2017-Sep-09 15:00N 32°57' W 117°49'0 1.0
2017-Sep-09 14:31N 32°57' W 117°49'0 0.8
2017-Sep-09 14:01N 32°57' W 117°50'0 0.8
2017-Sep-09 13:30N 32°58' W 117°50'0 0.5
2017-Sep-09 13:01N 32°58' W 117°50'0 0.6
2017-Sep-09 12:30N 32°58' W 117°51'0 0.7
2017-Sep-09 12:01N 32°58' W 117°51'0 0.8
2017-Sep-09 11:30N 32°59' W 117°51'0 0.9
2017-Sep-09 11:00N 32°59' W 117°51'0 0.9
2017-Sep-09 10:30N 32°59' W 117°52'1 1.9
2017-Sep-09 10:01N 33°00' W 117°52'2 3.2
2017-Sep-09 09:31N 33°02' W 117°53'2 4.3
2017-Sep-09 09:00N 33°04' W 117°54'2 4.6
2017-Sep-09 08:30N 33°06' W 117°55'2 4.6
2017-Sep-09 08:01N 33°08' W 117°56'2 3.7
2017-Sep-09 07:27N 33°10' W 117°57'1 1.2
2017-Sep-09 07:01N 33°10' W 117°57'0 1.0
2017-Sep-09 06:30N 33°11' W 117°57'0 0.8
2017-Sep-09 06:00N 33°11' W 117°57'0 0.2
2017-Sep-09 05:31N 33°11' W 117°57'0 0.4
2017-Sep-09 05:00N 33°11' W 117°57'0 0.3
2017-Sep-09 04:31N 33°11' W 117°57'0 0.2
2017-Sep-09 04:00N 33°11' W 117°57'0 0.3
2017-Sep-09 03:31N 33°11' W 117°57'0 0.9
2017-Sep-09 03:00N 33°11' W 117°56'1 2.7
2017-Sep-09 02:31N 33°11' W 117°55'1 1.1
2017-Sep-09 02:01N 33°11' W 117°54'0 0.3
2017-Sep-09 01:31N 33°11' W 117°54'0 0.4
2017-Sep-09 01:00N 33°11' W 117°54'0 0.3
2017-Sep-09 00:31N 33°11' W 117°55'0 0.2
2017-Sep-09 00:01N 33°11' W 117°55'0 0.3
2017-Sep-08 23:31N 33°11' W 117°55'0 0.3
2017-Sep-08 23:01N 33°11' W 117°55'0 0.2
2017-Sep-08 22:31N 33°11' W 117°55'0 0.2
2017-Sep-08 22:01N 33°11' W 117°55'1 1.0
2017-Sep-08 21:31N 33°11' W 117°55'3 6.2
2017-Sep-08 21:00N 33°08' W 117°53'3 6.0
2017-Sep-08 20:31N 33°06' W 117°52'1 1.0
2017-Sep-08 20:01N 33°05' W 117°53'0 0.2
2017-Sep-08 19:31N 33°05' W 117°53'0 0.3
2017-Sep-08 19:01N 33°05' W 117°53'0 0.2
2017-Sep-08 18:31N 33°05' W 117°53'0 0.4
2017-Sep-08 18:01N 33°05' W 117°53'0 0.3
2017-Sep-08 17:31N 33°05' W 117°53'0 0.3
2017-Sep-08 17:01N 33°05' W 117°54'0 0.3
2017-Sep-08 16:30N 33°05' W 117°54'0 0.2
2017-Sep-08 16:00N 33°05' W 117°54'0 0.3
2017-Sep-08 15:30N 33°05' W 117°54'0 0.2
2017-Sep-08 15:01N 33°05' W 117°54'0 0.1
2017-Sep-08 14:30N 33°05' W 117°54'0 0.2
2017-Sep-08 14:00N 33°05' W 117°54'0 0.1
2017-Sep-08 13:31N 33°05' W 117°54'0 0.1
2017-Sep-08 13:01N 33°05' W 117°54'0 0.1
2017-Sep-08 12:31N 33°05' W 117°54'0 0.1
2017-Sep-08 12:01N 33°05' W 117°54'0 0.0
2017-Sep-08 11:31N 33°05' W 117°54'0 0.0
2017-Sep-08 11:00N 33°05' W 117°54'0 0.1
2017-Sep-08 10:31N 33°05' W 117°55'0 0.0
2017-Sep-08 10:00N 33°05' W 117°55'0 0.2
2017-Sep-08 09:30N 33°05' W 117°54'0 0.2
2017-Sep-08 09:01N 33°05' W 117°54'0 0.1
2017-Sep-08 08:30N 33°05' W 117°54'0 0.2
2017-Sep-08 08:00N 33°05' W 117°54'0 0.1
2017-Sep-08 07:31N 33°05' W 117°54'0 0.2
2017-Sep-08 07:01N 33°05' W 117°54'0 0.4
2017-Sep-08 06:30N 33°05' W 117°54'  

Dump ship's entire track history